Robbins, North Carolina
Current Conditions -  °F | °C
As of 11:15 AM on Monday 24 Nov 2014 (Local Time) from KSOP Reporting Station
Overcast Overcast  
Wind Chill: 70°   Ceiling: 2800
Heat Index: 70°   Visibility: 10mi
Dew Point: 10°   Wind: 9mph
Humidity: 10%   Direction: 210°SSW
Pressure: 29.84"   Gusts: NA
Location:  35.43°N, 79.59°W
Report Text: KSOP 241615Z AUTO 21008KT 10SM SCT017 SCT022 OVC028 21/M12 A2984 RMK AO1
Loading
Personal Weather Stations






























Interactive Weather Map New forecast layout! Learn more

10-Day Weather Forecast

Advertisements
Track Severe Weather on mobile